createdAt,value
2022-12-03T00:03:35.476Z,64.1
2022-12-03T00:08:35.337Z,62.6
2022-12-03T00:13:35.561Z,62.0
2022-12-03T00:18:35.299Z,79.4
2022-12-03T00:23:41.553Z,92.3
2022-12-03T00:28:35.350Z,84.8
2022-12-03T00:33:35.443Z,70.9
2022-12-03T00:38:35.296Z,72.7
2022-12-03T00:43:35.289Z,81.9
2022-12-03T00:48:35.415Z,83.0
2022-12-03T00:53:35.252Z,83.9
2022-12-03T00:58:35.389Z,77.9
2022-12-03T01:03:35.447Z,66.2
2022-12-03T01:08:35.307Z,65.2
2022-12-03T01:13:35.292Z,64.2
2022-12-03T01:18:35.361Z,57.2
2022-12-03T01:23:35.253Z,57.2
2022-12-03T01:28:35.226Z,57.4
2022-12-03T01:33:35.370Z,59.6
2022-12-03T01:38:35.243Z,57.2
2022-12-03T01:43:35.228Z,54.2
2022-12-03T01:48:35.274Z,61.5
2022-12-03T01:53:35.171Z,58.7
2022-12-03T01:58:35.172Z,54.8
2022-12-03T02:03:35.437Z,52.6
2022-12-03T02:08:35.188Z,52.6
2022-12-03T02:13:35.128Z,58.0
2022-12-03T02:18:35.226Z,54.6
2022-12-03T02:23:35.137Z,57.9
2022-12-03T02:28:35.112Z,53.4
2022-12-03T02:33:35.230Z,60.1
2022-12-03T02:38:35.057Z,51.5
2022-12-03T02:43:35.223Z,52.4
2022-12-03T02:48:35.130Z,48.2
2022-12-03T02:53:35.086Z,53.7
2022-12-03T02:58:35.067Z,53.9
2022-12-03T03:03:35.179Z,54.3
2022-12-03T03:08:35.062Z,55.2
2022-12-03T03:13:35.050Z,57.2
2022-12-03T03:18:35.165Z,56.4
2022-12-03T03:23:34.987Z,51.3
2022-12-03T03:28:35.003Z,52.5
2022-12-03T03:33:35.092Z,54.1
2022-12-03T03:38:35.009Z,50.1
2022-12-03T03:43:34.936Z,51.4
2022-12-03T03:48:35.132Z,55.5
2022-12-03T03:53:35.021Z,51.8
2022-12-03T03:58:34.976Z,59.0
2022-12-03T04:03:35.074Z,62.0
2022-12-03T04:08:34.965Z,58.8
2022-12-03T04:13:34.929Z,55.5
2022-12-03T04:18:35.009Z,56.2
2022-12-03T04:23:34.880Z,47.2
2022-12-03T04:28:34.896Z,55.9
2022-12-03T04:33:34.994Z,58.0
2022-12-03T04:38:34.875Z,54.3
2022-12-03T04:43:34.851Z,50.0
2022-12-03T04:48:34.991Z,52.4
2022-12-03T04:53:36.352Z,54.4
2022-12-03T04:58:34.875Z,65.3
2022-12-03T05:03:34.973Z,58.3
2022-12-03T05:08:34.822Z,66.9
2022-12-03T05:13:34.801Z,66.7
2022-12-03T05:18:34.899Z,62.8
2022-12-03T05:23:34.779Z,60.9
2022-12-03T05:28:34.822Z,67.4
2022-12-03T05:33:38.289Z,65.7
2022-12-03T05:38:34.788Z,66.6
2022-12-03T05:43:34.745Z,64.3
2022-12-03T05:48:34.852Z,73.3
2022-12-03T05:53:34.843Z,69.7
2022-12-03T05:58:34.724Z,66.4
2022-12-03T06:03:34.844Z,81.3
2022-12-03T06:08:34.728Z,71.9
2022-12-03T06:13:34.706Z,73.7
2022-12-03T06:18:34.830Z,68.3
2022-12-03T06:23:34.641Z,70.4
2022-12-03T06:28:34.672Z,71.0
2022-12-03T06:33:35.486Z,64.0
2022-12-03T06:38:35.393Z,209.8
2022-12-03T06:43:34.623Z,185.5
2022-12-03T06:48:34.636Z,80.5
2022-12-03T06:53:34.797Z,66.0
2022-12-03T06:58:34.621Z,85.6
2022-12-03T07:03:34.592Z,89.9
2022-12-03T07:08:34.775Z,63.2
2022-12-03T07:13:34.589Z,65.5
2022-12-03T07:18:37.939Z,78.6
2022-12-03T07:23:41.834Z,68.9
2022-12-03T07:28:34.599Z,91.7
2022-12-03T07:33:39.315Z,91.6
2022-12-03T07:38:35.220Z,156.0
2022-12-03T07:43:35.599Z,138.0
2022-12-03T07:48:35.264Z,127.2
2022-12-03T07:53:34.554Z,139.8
2022-12-03T07:58:35.323Z,98.8
2022-12-03T08:03:35.265Z,100.6
2022-12-03T08:08:35.426Z,116.6
2022-12-03T08:13:35.198Z,102.4
2022-12-03T08:18:35.212Z,114.8
2022-12-03T08:23:34.604Z,112.0
2022-12-03T08:28:34.520Z,89.6
2022-12-03T08:33:34.476Z,86.1
2022-12-03T08:38:34.522Z,84.4
2022-12-03T08:43:34.457Z,80.1
2022-12-03T08:48:35.161Z,81.4
2022-12-03T08:53:34.406Z,101.3
2022-12-03T08:58:34.404Z,80.2
2022-12-03T09:03:34.624Z,69.9
2022-12-03T09:08:34.385Z,75.0
2022-12-03T09:13:35.123Z,86.9
2022-12-03T09:18:35.451Z,105.3
2022-12-03T09:23:35.111Z,179.5
2022-12-03T09:28:35.518Z,112.6
2022-12-03T09:33:34.306Z,103.5
2022-12-03T09:38:34.358Z,98.4
2022-12-03T09:44:02.898Z,74.8
2022-12-03T09:48:34.488Z,75.1
2022-12-03T09:53:39.641Z,68.4
2022-12-03T09:58:34.892Z,62.0
2022-12-03T10:03:34.422Z,65.3
2022-12-03T10:08:34.408Z,70.2
2022-12-03T10:13:34.259Z,84.3
2022-12-03T10:18:41.300Z,73.6
2022-12-03T10:23:34.937Z,124.2
2022-12-03T10:28:34.311Z,104.0
2022-12-03T10:33:34.979Z,77.3
2022-12-03T10:38:34.350Z,126.9
2022-12-03T10:43:35.019Z,83.4
2022-12-03T10:48:34.343Z,100.4
2022-12-03T10:53:34.209Z,71.3
2022-12-03T10:58:34.449Z,67.5
2022-12-03T11:03:34.306Z,64.9
2022-12-03T11:08:34.414Z,67.2
2022-12-03T11:13:34.150Z,69.8
2022-12-03T11:18:35.297Z,86.1
2022-12-03T11:23:34.246Z,121.9
2022-12-03T11:28:34.230Z,90.2
2022-12-03T11:33:35.158Z,78.1
2022-12-03T11:38:34.990Z,183.8
2022-12-03T11:43:34.110Z,110.3
2022-12-03T11:48:35.561Z,91.4
2022-12-03T11:53:35.990Z,134.1
2022-12-03T11:58:38.812Z,117.8
2022-12-03T12:03:40.145Z,97.5
2022-12-03T12:08:35.080Z,100.8
2022-12-03T12:13:34.832Z,102.6
2022-12-03T12:18:44.144Z,172.8
2022-12-03T12:23:33.995Z,93.1
2022-12-03T12:28:34.883Z,92.7
2022-12-03T12:33:34.862Z,121.7
2022-12-03T12:38:34.809Z,172.7
2022-12-03T12:43:35.035Z,162.1
2022-12-03T12:48:34.940Z,123.6
2022-12-03T12:53:35.120Z,139.1
2022-12-03T12:58:34.072Z,111.7
2022-12-03T13:03:34.154Z,91.9
2022-12-03T13:08:33.989Z,99.2
2022-12-03T13:13:40.122Z,88.2
2022-12-03T13:18:34.876Z,122.3
2022-12-03T13:23:34.945Z,103.2
2022-12-03T13:28:34.860Z,133.3
2022-12-03T13:33:34.856Z,129.3
2022-12-03T13:38:34.787Z,120.4
2022-12-03T13:43:37.617Z,114.9
2022-12-03T13:48:34.001Z,115.4
2022-12-03T13:53:34.718Z,92.3
2022-12-03T13:58:34.673Z,106.9
2022-12-03T14:03:34.681Z,105.4
2022-12-03T14:08:34.942Z,107.9
2022-12-03T14:13:35.022Z,171.4
2022-12-03T14:23:34.506Z,207.9
2022-12-03T14:28:34.587Z,147.0
2022-12-03T14:33:34.622Z,146.3
2022-12-03T14:38:34.653Z,106.9
2022-12-03T14:43:34.774Z,116.1
2022-12-03T14:48:34.647Z,129.2
2022-12-03T14:53:34.631Z,145.9
2022-12-03T14:58:34.430Z,142.8
2022-12-03T15:03:34.583Z,136.3
2022-12-03T15:08:34.638Z,164.3
2022-12-03T15:13:34.585Z,201.4
2022-12-03T15:18:34.468Z,166.1
2022-12-03T15:23:34.659Z,192.6
2022-12-03T15:28:34.611Z,253.5
2022-12-03T15:33:34.402Z,145.1
2022-12-03T15:38:34.505Z,195.6
2022-12-03T15:43:34.616Z,184.8
2022-12-03T15:48:34.518Z,159.8
2022-12-03T15:53:34.439Z,188.3
2022-12-03T15:58:34.436Z,208.4
2022-12-03T16:03:34.728Z,161.8
2022-12-03T16:08:34.761Z,188.8
2022-12-03T16:13:34.765Z,211.6
2022-12-03T16:18:34.551Z,146.7
2022-12-03T16:23:34.510Z,138.3
2022-12-03T16:28:34.391Z,190.8
2022-12-03T16:33:34.359Z,145.9
2022-12-03T16:38:34.665Z,163.5
2022-12-03T16:43:34.306Z,180.8
2022-12-03T16:48:34.300Z,160.3
2022-12-03T16:53:34.305Z,127.4
2022-12-03T16:58:34.336Z,115.4
2022-12-03T17:03:34.420Z,150.4
2022-12-03T17:08:34.389Z,140.3
2022-12-03T17:13:34.202Z,124.3
2022-12-03T17:18:34.285Z,150.2
2022-12-03T17:23:33.478Z,136.4
2022-12-03T17:28:34.305Z,99.9
2022-12-03T17:33:34.261Z,127.2
2022-12-03T17:38:39.095Z,165.2
2022-12-03T17:43:34.167Z,151.7
2022-12-03T17:48:34.220Z,132.1
2022-12-03T17:53:33.416Z,110.2
2022-12-03T17:58:34.221Z,97.4
2022-12-03T18:03:34.223Z,230.5
2022-12-03T18:08:34.206Z,215.6
2022-12-03T18:13:34.203Z,179.9
2022-12-03T18:18:34.209Z,127.4
2022-12-03T18:23:34.147Z,173.2
2022-12-03T18:28:34.478Z,134.0
2022-12-03T18:33:34.257Z,144.8
2022-12-03T18:38:34.185Z,255.7
2022-12-03T18:43:34.078Z,156.4
2022-12-03T18:48:34.175Z,184.2
2022-12-03T18:53:34.198Z,139.9
2022-12-03T18:58:34.066Z,119.7
2022-12-03T19:03:34.438Z,133.0
2022-12-03T19:08:33.447Z,101.6
2022-12-03T19:13:33.542Z,87.5
2022-12-03T19:18:34.091Z,84.6
2022-12-03T19:23:38.686Z,81.4
2022-12-03T19:28:33.281Z,81.2
2022-12-03T19:33:33.341Z,80.5
2022-12-03T19:38:33.286Z,76.8
2022-12-03T19:43:33.319Z,80.8
2022-12-03T19:48:34.219Z,87.0
2022-12-03T19:53:33.455Z,88.1
2022-12-03T19:58:33.893Z,80.0
2022-12-03T20:03:33.539Z,77.4
2022-12-03T20:08:33.379Z,76.9
2022-12-03T20:13:36.398Z,89.6
2022-12-03T20:18:34.395Z,78.4
2022-12-03T20:23:33.825Z,80.8
2022-12-03T20:28:33.302Z,94.8
2022-12-03T20:33:33.206Z,82.9
2022-12-03T20:38:34.164Z,82.6
2022-12-03T20:43:35.269Z,84.1
2022-12-03T20:48:33.210Z,81.1
2022-12-03T20:53:33.341Z,80.9
2022-12-03T20:58:33.154Z,69.2
2022-12-03T21:03:33.140Z,72.9
2022-12-03T21:08:40.935Z,73.9
2022-12-03T21:13:33.174Z,71.0
2022-12-03T21:18:33.202Z,81.4
2022-12-03T21:23:33.340Z,78.1
2022-12-03T21:28:33.239Z,73.3
2022-12-03T21:33:33.172Z,80.0
2022-12-03T21:38:33.630Z,70.6
2022-12-03T21:43:33.245Z,74.8
2022-12-03T21:48:33.176Z,70.1
2022-12-03T21:53:33.426Z,89.7
2022-12-03T21:58:34.380Z,93.5
2022-12-03T22:03:35.164Z,107.1
2022-12-03T22:08:32.957Z,131.7
2022-12-03T22:13:33.751Z,94.8
2022-12-03T22:18:33.874Z,108.5
2022-12-03T22:23:32.956Z,114.7
2022-12-03T22:28:33.883Z,80.7
2022-12-03T22:33:33.441Z,101.7
2022-12-03T22:38:33.022Z,81.5
2022-12-03T22:43:32.942Z,74.4
2022-12-03T22:48:32.933Z,74.9
2022-12-03T22:53:33.007Z,73.7
2022-12-03T22:58:33.163Z,73.2
2022-12-03T23:03:32.975Z,67.5
2022-12-03T23:08:32.843Z,77.2
2022-12-03T23:13:33.766Z,72.6
2022-12-03T23:18:33.623Z,178.6
2022-12-03T23:28:34.056Z,342.6
2022-12-03T23:33:37.889Z,141.6
2022-12-03T23:38:32.926Z,74.0
2022-12-03T23:43:33.102Z,64.1
2022-12-03T23:48:32.788Z,65.7
2022-12-03T23:53:32.832Z,58.6
2022-12-03T23:58:33.150Z,75.4
